Time;durP1;ratioP1;P1;durP2;ratioP2;P2;SDS_P1;SDS_P2;PMS_P1;PMS_P2;Temp;Humidity;BMP_temperature;BMP_pressure;BME280_temperature;BME280_humidity;BME280_pressure;Samples;Min_cycle;Max_cycle;Signal;HPM_P1;HPM_P2
2022/12/14 00:00:27;;;;;;;13.48;10.68;;;;;;;4.34;100.00;101446.06;2088758;28;20545;-70
2022/12/14 00:01:27;;;;;;;15.97;11.80;;;;;;;4.37;100.00;101457.09;2088744;28;20201;-70
2022/12/14 00:02:28;;;;;;;14.87;10.80;;;;;;;4.37;100.00;101445.34;2088632;28;20191;-70
2022/12/14 00:03:28;;;;;;;14.07;11.23;;;;;;;4.17;100.00;101414.50;2096332;28;20177;-71
2022/12/14 00:04:29;;;;;;;13.37;11.20;;;;;;;3.85;100.00;101383.03;2090976;28;20257;-70
2022/12/14 00:05:29;;;;;;;15.13;11.00;;;;;;;4.28;100.00;101434.66;2093770;28;20279;-71
2022/12/14 00:06:31;;;;;;;13.83;11.30;;;;;;;4.34;100.00;101443.34;2092917;28;20250;-70
2022/12/14 00:07:32;;;;;;;15.18;10.93;;;;;;;4.35;100.00;101439.41;2088323;28;20277;-71
2022/12/14 00:08:32;;;;;;;13.53;11.23;;;;;;;4.37;100.00;101439.88;2088944;28;20230;-70
2022/12/14 00:09:33;;;;;;;13.37;10.70;;;;;;;4.31;100.00;101430.38;2089251;28;20280;-71
2022/12/14 00:10:34;;;;;;;13.37;10.80;;;;;;;4.37;100.00;101446.13;2096988;28;20241;-70
2022/12/14 00:11:35;;;;;;;13.48;11.25;;;;;;;3.44;100.00;101293.53;2089520;28;20192;-70
2022/12/14 00:12:35;;;;;;;16.07;11.03;;;;;;;4.37;100.00;101434.38;2088053;28;20242;-70
2022/12/14 00:13:37;;;;;;;14.33;11.13;;;;;;;4.30;100.00;101429.56;2088902;28;20195;-71
2022/12/14 00:14:38;;;;;;;13.73;10.88;;;;;;;4.24;100.00;101419.28;2088646;28;20192;-71
2022/12/14 00:15:39;;;;;;;13.73;10.82;;;;;;;4.36;100.00;101435.53;2092222;28;20195;-70
2022/12/14 00:16:39;;;;;;;12.67;10.00;;;;;;;4.36;100.00;101432.78;2096754;28;20204;-70
2022/12/14 00:17:40;;;;;;;14.57;10.77;;;;;;;4.25;100.00;101410.69;2096211;28;20175;-70
2022/12/14 00:18:41;;;;;;;12.27;10.40;;;;;;;4.13;100.00;101388.16;2089082;28;20616;-70
2022/12/14 00:19:41;;;;;;;12.40;9.90;;;;;;;4.38;100.00;101423.03;2088655;28;20211;-71
2022/12/14 00:20:42;;;;;;;13.23;10.77;;;;;;;4.37;100.00;101424.16;2095574;28;20194;-70
2022/12/14 00:21:42;;;;;;;11.90;10.00;;;;;;;4.38;100.00;101433.19;2091425;28;20273;-70
2022/12/14 00:22:42;;;;;;;12.57;9.90;;;;;;;4.40;100.00;101430.88;2092730;28;20635;-70
2022/12/14 00:23:44;;;;;;;13.10;9.87;;;;;;;4.30;100.00;101415.03;2093869;28;20187;-70
2022/12/14 00:24:44;;;;;;;13.18;10.80;;;;;;;4.41;100.00;101430.50;2088559;28;20558;-70
2022/12/14 00:25:45;;;;;;;12.43;10.43;;;;;;;4.41;100.00;101436.00;2088959;28;20176;-70
2022/12/14 00:26:45;;;;;;;12.53;9.50;;;;;;;4.42;100.00;101442.28;2088358;28;20183;-70
2022/12/14 00:27:46;;;;;;;13.90;10.83;;;;;;;4.31;100.00;101414.69;2097062;28;20225;-70
2022/12/14 00:28:48;;;;;;;15.00;10.57;;;;;;;4.51;100.00;101440.84;2097152;28;20283;-71
2022/12/14 00:29:49;;;;;;;12.90;10.13;;;;;;;4.55;100.00;101440.88;2096532;28;20206;-71
2022/12/14 00:30:55;;;;;;;13.73;10.40;;;;;;;4.59;100.00;101438.97;2091767;28;20192;-70
2022/12/14 00:31:56;;;;;;;12.98;10.13;;;;;;;4.62;100.00;101441.00;2088864;28;20176;-71
2022/12/14 00:32:56;;;;;;;12.40;9.77;;;;;;;4.58;100.00;101429.97;2091718;28;20671;-70
2022/12/14 00:33:57;;;;;;;12.67;10.27;;;;;;;4.53;100.00;101437.72;2094923;28;20247;-70
2022/12/14 00:35:00;;;;;;;12.20;10.57;;;;;;;4.53;100.00;101437.72;2089393;28;20258;-71
2022/12/14 00:36:02;;;;;;;13.65;10.43;;;;;;;3.82;100.00;101339.13;2096926;28;20175;-72
2022/12/14 00:37:02;;;;;;;13.18;10.00;;;;;;;4.48;100.00;101427.88;2097014;28;20620;-70
2022/12/14 00:38:03;;;;;;;13.27;9.80;;;;;;;3.86;100.00;101318.81;2096824;28;20225;-70
2022/12/14 00:39:03;;;;;;;12.23;10.00;;;;;;;4.56;100.00;101435.03;2090484;28;20265;-70
2022/12/14 00:40:06;;;;;;;12.67;10.70;;;;;;;3.48;100.00;101258.75;2093667;28;20227;-70
2022/12/14 00:41:07;;;;;;;13.32;9.60;;;;;;;4.63;100.00;101440.63;2096769;28;20222;-70
2022/12/14 00:42:08;;;;;;;12.07;9.35;;;;;;;4.63;100.00;101437.88;2096349;28;20294;-70
2022/12/14 00:43:08;;;;;;;11.17;9.23;;;;;;;4.62;100.00;101439.03;2094474;28;20637;-71
2022/12/14 00:44:08;;;;;;;10.87;9.43;;;;;;;4.60;100.00;101444.09;2096771;28;20182;-70
2022/12/14 00:45:09;;;;;;;12.80;9.70;;;;;;;4.55;100.00;101438.94;2097322;28;20351;-71
2022/12/14 00:46:10;;;;;;;11.03;9.20;;;;;;;4.59;100.00;101444.47;2088566;28;20192;-70
2022/12/14 00:47:10;;;;;;;12.30;9.77;;;;;;;4.04;100.00;101355.53;2095393;28;20195;-71
2022/12/14 00:48:11;;;;;;;11.97;9.77;;;;;;;4.64;100.00;101438.66;2096901;28;20203;-70
2022/12/14 00:49:12;;;;;;;13.43;9.80;;;;;;;4.47;100.00;101407.06;2092112;28;20221;-70
2022/12/14 00:50:12;;;;;;;10.93;9.17;;;;;;;4.59;100.00;101425.25;2091716;28;20199;-70
2022/12/14 00:51:17;;;;;;;12.73;9.87;;;;;;;4.66;100.00;101445.34;2096659;28;20188;-71
2022/12/14 00:52:17;;;;;;;12.88;9.88;;;;;;;4.39;100.00;101388.94;2094394;28;20248;-71
2022/12/14 00:53:18;;;;;;;11.87;9.37;;;;;;;4.69;100.00;101435.59;2088366;28;20325;-70
2022/12/14 00:54:18;;;;;;;10.87;9.13;;;;;;;4.67;100.00;101433.19;2088974;28;20187;-71
2022/12/14 00:55:19;;;;;;;10.23;9.03;;;;;;;4.04;100.00;101333.59;2096146;28;20711;-70
2022/12/14 00:56:19;;;;;;;14.37;9.87;;;;;;;4.74;100.00;101441.56;2090259;28;20250;-70
2022/12/14 00:57:20;;;;;;;11.50;10.30;;;;;;;4.75;100.00;101437.63;2093531;28;20203;-70
2022/12/14 00:58:22;;;;;;;13.40;10.37;;;;;;;4.77;100.00;101435.28;2092521;28;20184;-70
2022/12/14 00:59:23;;;;;;;12.18;10.18;;;;;;;4.27;100.00;101375.41;2088444;28;20200;-70
2022/12/14 01:00:23;;;;;;;11.53;10.13;;;;;;;4.75;100.00;101436.81;2088075;28;20176;-70
2022/12/14 01:01:24;;;;;;;12.03;9.83;;;;;;;4.80;100.00;101439.25;2089246;28;20747;-71
2022/12/14 01:02:24;;;;;;;12.60;10.40;;;;;;;4.77;100.00;101440.00;2096556;28;20241;-70
2022/12/14 01:03:25;;;;;;;11.40;10.03;;;;;;;4.71;100.00;101442.28;2088801;28;20206;-71
2022/12/14 01:04:26;;;;;;;12.37;9.87;;;;;;;4.69;100.00;101452.06;2095337;28;20257;-71
2022/12/14 01:05:27;;;;;;;11.25;9.82;;;;;;;4.72;100.00;101454.06;2091027;28;20447;-70
2022/12/14 01:06:28;;;;;;;12.05;10.40;;;;;;;4.68;100.00;101439.50;2088297;28;20261;-70
2022/12/14 01:07:28;;;;;;;12.77;10.30;;;;;;;4.54;100.00;101411.84;2087645;28;20878;-70
2022/12/14 01:08:34;;;;;;;12.87;10.90;;;;;;;3.75;100.00;101292.44;2090821;28;20277;-71
2022/12/14 01:09:34;;;;;;;11.50;9.55;;;;;;;4.78;100.00;101450.59;2094161;28;20166;-71
2022/12/14 01:10:38;;;;;;;12.57;10.57;;;;;;;4.78;100.00;101445.09;2088239;28;20183;-71
2022/12/14 01:11:39;;;;;;;13.05;10.63;;;;;;;4.78;100.00;101447.09;2088632;28;20181;-70
2022/12/14 01:12:39;;;;;;;12.43;10.32;;;;;;;4.76;100.00;101452.94;2088198;28;20264;-70
2022/12/14 01:13:41;;;;;;;12.33;10.37;;;;;;;4.74;100.00;101446.25;2095911;28;20175;-71
2022/12/14 01:14:41;;;;;;;11.60;9.65;;;;;;;4.75;100.00;101450.56;2090619;28;20775;-70
2022/12/14 01:15:41;;;;;;;14.80;11.33;;;;;;;4.74;100.00;101457.22;2093717;28;20592;-70
2022/12/14 01:16:42;;;;;;;14.00;10.80;;;;;;;4.75;100.00;101451.38;2092608;28;20235;-70
2022/12/14 01:17:43;;;;;;;12.23;10.50;;;;;;;4.13;100.00;101356.06;2091107;28;20188;-70
2022/12/14 01:18:43;;;;;;;12.40;10.30;;;;;;;4.67;100.00;101440.66;2096336;28;20208;-70
2022/12/14 01:19:44;;;;;;;13.30;10.77;;;;;;;4.67;100.00;101446.94;2096325;28;20183;-71
2022/12/14 01:20:44;;;;;;;12.63;10.23;;;;;;;4.55;100.00;101425.22;2097007;28;20652;-70
2022/12/14 01:21:44;;;;;;;15.07;10.90;;;;;;;4.66;100.00;101439.88;2089597;28;20245;-71
2022/12/14 01:22:45;;;;;;;11.97;10.00;;;;;;;4.68;100.00;101448.53;2093362;28;20198;-70
2022/12/14 01:23:47;;;;;;;14.53;10.43;;;;;;;4.60;100.00;101435.06;2091671;28;20610;-71
2022/12/14 01:24:47;;;;;;;13.77;10.77;;;;;;;4.57;100.00;101442.09;2088446;28;20203;-71
2022/12/14 01:25:48;;;;;;;11.87;9.70;;;;;;;3.28;100.00;101245.53;2091120;28;20194;-71
2022/12/14 01:26:48;;;;;;;13.17;10.20;;;;;;;4.18;100.00;101383.16;2094622;28;20643;-70
2022/12/14 01:27:49;;;;;;;14.37;10.27;;;;;;;4.07;100.00;101373.19;2088868;28;20198;-70
2022/12/14 01:28:52;;;;;;;12.80;10.67;;;;;;;4.47;100.00;101436.47;2097134;28;20174;-70
2022/12/14 01:29:52;;;;;;;12.40;10.70;;;;;;;4.37;100.00;101426.91;2087745;28;20534;-71
2022/12/14 01:30:53;;;;;;;11.83;9.77;;;;;;;4.41;100.00;101436.00;2088297;28;20210;-70
2022/12/14 01:31:53;;;;;;;12.70;10.53;;;;;;;4.37;100.00;101437.13;2088628;28;20188;-71
2022/12/14 01:32:54;;;;;;;12.73;10.70;;;;;;;4.42;100.00;101443.06;2092124;28;20201;-71
2022/12/14 01:33:55;;;;;;;12.97;10.83;;;;;;;4.46;100.00;101438.41;2093375;28;20554;-71
2022/12/14 01:34:55;;;;;;;13.30;11.27;;;;;;;4.49;100.00;101436.88;2088454;28;20212;-71
2022/12/14 01:35:55;;;;;;;14.33;11.27;;;;;;;4.47;100.00;101431.75;2089357;28;20182;-71
2022/12/14 01:36:56;;;;;;;13.73;10.90;;;;;;;4.36;100.00;101435.53;2096672;28;20180;-71
2022/12/14 01:37:56;;;;;;;12.87;10.50;;;;;;;3.83;100.00;101370.88;2096776;28;20234;-71
2022/12/14 01:39:02;;;;;;;13.00;11.40;;;;;;;3.73;100.00;101376.97;2089459;28;20296;-71
2022/12/14 01:40:03;;;;;;;15.88;12.40;;;;;;;3.42;100.00;101306.81;2087512;28;20203;-71
2022/12/14 01:41:05;;;;;;;14.07;11.40;;;;;;;3.15;100.00;101261.38;2088485;28;20199;-70
2022/12/14 01:42:14;;;;;;;13.95;11.48;;;;;;;4.20;100.00;101419.22;2087691;28;20230;-71
2022/12/14 01:43:14;;;;;;;14.52;11.30;;;;;;;4.21;100.00;101418.06;2089036;28;20265;-70
2022/12/14 01:44:14;;;;;;;15.23;11.80;;;;;;;4.34;100.00;101446.88;2093730;28;20204;-71
2022/12/14 01:45:20;;;;;;;15.17;11.93;;;;;;;4.27;100.00;101441.28;2088214;28;20184;-70
2022/12/14 01:46:26;;;;;;;14.13;11.20;;;;;;;4.14;100.00;101445.41;2089960;28;20170;-70
2022/12/14 01:47:41;;;;;;;14.63;11.63;;;;;;;4.17;100.00;101443.88;2094961;28;20211;-71
2022/12/14 01:48:41;;;;;;;14.35;11.27;;;;;;;4.25;100.00;101445.56;2088301;28;20200;-71
2022/12/14 01:50:17;;;;;;;14.23;11.33;;;;;;;3.91;100.00;101387.06;2095486;28;20279;-71
2022/12/14 01:51:17;;;;;;;15.50;12.27;;;;;;;4.19;100.00;101428.63;2090913;28;20241;-70
2022/12/14 01:52:42;;;;;;;14.77;12.00;;;;;;;3.99;100.00;101394.22;2090980;28;20290;-71
2022/12/14 01:53:43;;;;;;;13.35;11.07;;;;;;;4.26;100.00;101449.91;2096829;28;20262;-71
2022/12/14 01:55:08;;;;;;;15.18;12.52;;;;;;;4.29;100.00;101440.91;2094788;28;20247;-71
2022/12/14 01:56:09;;;;;;;14.50;11.85;;;;;;;4.27;100.00;101446.75;2096577;28;20198;-71
2022/12/14 01:57:12;;;;;;;14.80;11.80;;;;;;;4.11;100.00;101410.47;2090935;28;20198;-71
2022/12/14 01:58:17;;;;;;;14.82;12.02;;;;;;;3.65;100.00;101354.13;2087788;28;20206;-71
2022/12/14 01:59:24;;;;;;;13.65;11.73;;;;;;;4.26;100.00;101436.94;2087579;28;20202;-71
2022/12/14 02:00:24;;;;;;;15.13;12.15;;;;;;;4.32;100.00;101446.44;2091667;28;20657;-71
2022/12/14 02:01:25;;;;;;;14.50;12.23;;;;;;;4.23;100.00;101439.66;2093959;28;20190;-71
2022/12/14 02:02:27;;;;;;;16.13;12.63;;;;;;;4.16;100.00;101436.81;2088622;28;20182;-71
2022/12/14 02:03:37;;;;;;;16.17;13.63;;;;;;;3.04;100.00;101259.63;2096225;28;20178;-71
2022/12/14 02:04:44;;;;;;;14.90;11.82;;;;;;;4.17;100.00;101430.97;2095799;28;20179;-71
2022/12/14 02:05:49;;;;;;;16.40;12.98;;;;;;;4.22;100.00;101443.56;2088363;28;20175;-71
2022/12/14 02:06:51;;;;;;;15.57;12.88;;;;;;;3.82;100.00;101359.13;2096634;28;20178;-71
2022/12/14 02:07:54;;;;;;;14.98;11.65;;;;;;;4.28;100.00;101434.66;2096511;28;20213;-71
2022/12/14 02:08:55;;;;;;;14.55;12.35;;;;;;;3.10;100.00;101258.97;2088474;28;20221;-70
2022/12/14 02:09:59;;;;;;;14.10;11.75;;;;;;;4.29;100.00;101435.41;2093215;28;20258;-71
2022/12/14 02:11:01;;;;;;;16.15;12.32;;;;;;;4.26;100.00;101431.47;2096560;28;20201;-71
2022/12/14 02:12:10;;;;;;;16.30;13.45;;;;;;;4.20;100.00;101432.94;2095650;28;20459;-71
2022/12/14 02:13:16;;;;;;;15.10;12.45;;;;;;;4.14;100.00;101436.38;2096085;28;20633;-71
2022/12/14 02:14:16;;;;;;;15.43;12.30;;;;;;;3.70;100.00;101370.28;2092827;28;20177;-71
2022/12/14 02:15:17;;;;;;;14.20;11.67;;;;;;;4.03;100.00;101408.81;2088033;28;20754;-71
2022/12/14 02:16:18;;;;;;;15.93;13.10;;;;;;;4.28;100.00;101439.31;2088158;28;20690;-71
2022/12/14 02:17:19;;;;;;;15.40;12.90;;;;;;;4.30;100.00;101447.97;2087946;28;20210;-70
2022/12/14 02:18:22;;;;;;;17.13;13.60;;;;;;;4.33;100.00;101439.00;2088441;28;20182;-70
2022/12/14 02:19:23;;;;;;;16.58;13.30;;;;;;;4.35;100.00;101440.22;2096465;28;20285;-71
2022/12/14 02:20:34;;;;;;;16.37;13.73;;;;;;;4.36;100.00;101447.28;2096170;28;20668;-71
2022/12/14 02:21:55;;;;;;;17.00;13.50;;;;;;;4.43;100.00;101450.16;2090747;28;20229;-71
2022/12/14 02:23:16;;;;;;;16.05;12.32;;;;;;;4.48;100.00;101447.09;2089972;28;20167;-71
2022/12/14 02:24:16;;;;;;;18.70;12.80;;;;;;;4.57;100.00;101442.09;2089777;28;20166;-71
2022/12/14 02:25:48;;;;;;;15.70;12.50;;;;;;;4.61;100.00;101444.91;2090060;28;20179;-70
2022/12/14 02:27:01;;;;;;;15.02;12.52;;;;;;;4.63;100.00;101432.38;2092284;28;20192;-71
2022/12/14 02:28:29;;;;;;;16.08;12.90;;;;;;;4.39;100.00;101383.44;2094639;28;20205;-71
2022/12/14 02:29:58;;;;;;;15.02;12.30;;;;;;;4.68;100.00;101425.78;2095778;28;20188;-71
2022/12/14 02:31:30;;;;;;;15.38;12.25;;;;;;;4.69;100.00;101419.91;2090190;28;20167;-71
2022/12/14 02:32:55;;;;;;;16.38;12.77;;;;;;;4.67;100.00;101416.72;2088966;28;20167;-71
2022/12/14 02:34:20;;;;;;;15.57;12.35;;;;;;;4.60;100.00;101418.59;2090047;28;20906;-71
2022/12/14 02:35:33;;;;;;;16.98;13.32;;;;;;;4.54;100.00;101411.84;2096777;28;20221;-71
2022/12/14 02:36:38;;;;;;;17.27;12.88;;;;;;;3.84;100.00;101304.69;2098050;28;20197;-71
2022/12/14 02:38:00;;;;;;;15.48;12.93;;;;;;;4.52;100.00;101406.72;2097901;28;20225;-71
2022/12/14 02:39:15;;;;;;;17.58;12.95;;;;;;;4.55;100.00;101405.19;2098282;28;20205;-71
2022/12/14 02:40:44;;;;;;;16.65;13.07;;;;;;;4.55;100.00;101395.00;2097426;28;20640;-71
2022/12/14 02:42:03;;;;;;;17.50;13.70;;;;;;;4.60;100.00;101411.16;2085336;28;20235;-71
2022/12/14 02:43:25;;;;;;;15.85;12.70;;;;;;;4.65;100.00;101410.84;2089404;28;20195;-71
2022/12/14 02:44:44;;;;;;;18.02;12.95;;;;;;;4.71;100.00;101406.59;2095515;28;20186;-71
2022/12/14 02:46:02;;;;;;;15.90;12.57;;;;;;;4.71;100.00;101405.78;2089981;28;20675;-71
2022/12/14 02:47:22;;;;;;;14.63;11.85;;;;;;;4.73;100.00;101404.25;2089757;28;20266;-71
2022/12/14 02:48:29;;;;;;;15.95;12.68;;;;;;;4.76;100.00;101402.72;2089561;28;20721;-71
2022/12/14 02:50:05;;;;;;;15.40;12.00;;;;;;;4.79;100.00;101397.28;2089634;28;20641;-71
2022/12/14 02:51:13;;;;;;;15.18;11.63;;;;;;;4.11;100.00;101286.25;2089579;28;20206;-71
2022/12/14 02:52:31;;;;;;;14.65;11.90;;;;;;;4.82;100.00;101398.50;2088662;28;20191;-71
2022/12/14 02:53:46;;;;;;;15.00;11.93;;;;;;;4.75;100.00;101381.91;2094734;28;20187;-71
2022/12/14 02:55:04;;;;;;;16.90;12.95;;;;;;;4.81;100.00;101397.69;2097767;28;20201;-71
2022/12/14 02:56:12;;;;;;;14.43;12.07;;;;;;;4.84;100.00;101396.16;2090946;28;20202;-71
2022/12/14 02:57:28;;;;;;;16.48;12.90;;;;;;;4.86;100.00;101394.59;2096278;28;20193;-71
2022/12/14 02:58:37;;;;;;;16.02;13.02;;;;;;;4.80;100.00;101393.38;2097453;28;20601;-70
2022/12/14 02:59:38;;;;;;;16.10;12.75;;;;;;;4.75;100.00;101379.97;2097935;28;20484;-71
2022/12/14 03:00:39;;;;;;;15.70;13.02;;;;;;;4.83;100.00;101392.59;2090611;28;20222;-71
2022/12/14 03:01:41;;;;;;;15.35;12.95;;;;;;;4.87;100.00;101393.44;2089410;28;20206;-71
2022/12/14 03:02:44;;;;;;;14.75;12.65;;;;;;;4.84;100.00;101393.41;2093669;28;20277;-71
2022/12/14 03:03:45;;;;;;;15.57;12.52;;;;;;;4.89;100.00;101404.06;2093864;28;20200;-71
2022/12/14 03:04:49;;;;;;;15.03;12.67;;;;;;;4.90;100.00;101413.88;2089223;28;20200;-70
2022/12/14 03:06:13;;;;;;;14.82;12.25;;;;;;;4.92;100.00;101417.06;2089368;28;20168;-71
2022/12/14 03:07:22;;;;;;;14.57;12.65;;;;;;;4.96;100.00;101426.91;2093136;28;20243;-71
2022/12/14 03:08:25;;;;;;;14.82;12.63;;;;;;;4.95;100.00;101419.03;2089463;28;20667;-71
2022/12/14 03:09:28;;;;;;;15.40;13.02;;;;;;;4.82;100.00;101399.25;2089880;28;20280;-71
2022/12/14 03:10:51;;;;;;;15.57;12.55;;;;;;;4.92;100.00;101414.31;2094983;28;20261;-71
2022/12/14 03:12:00;;;;;;;16.25;13.00;;;;;;;4.25;100.00;101320.16;2093786;28;20189;-70
2022/12/14 03:13:08;;;;;;;15.90;12.93;;;;;;;4.85;100.00;101428.72;2092925;28;20202;-70
2022/12/14 03:14:16;;;;;;;17.13;13.57;;;;;;;4.88;100.00;101427.19;2093620;28;20191;-71
2022/12/14 03:15:19;;;;;;;15.00;13.35;;;;;;;4.89;100.00;101432.31;2093559;28;20223;-70
2022/12/14 03:16:27;;;;;;;16.98;13.82;;;;;;;4.14;100.00;101330.19;2089120;28;20189;-71
2022/12/14 03:17:32;;;;;;;15.80;13.05;;;;;;;4.87;100.00;101442.09;2088932;28;20671;-71
2022/12/14 03:18:41;;;;;;;16.42;13.40;;;;;;;3.81;100.00;101274.50;2089062;28;20183;-70
2022/12/14 03:19:54;;;;;;;16.27;13.35;;;;;;;4.87;100.00;101439.34;2089072;28;20542;-71
2022/12/14 03:20:59;;;;;;;17.17;13.77;;;;;;;4.82;100.00;101426.72;2089393;28;20211;-71
2022/12/14 03:22:09;;;;;;;17.30;13.93;;;;;;;4.78;100.00;101414.13;2089487;28;20202;-71
2022/12/14 03:23:17;;;;;;;16.25;13.73;;;;;;;4.10;100.00;101312.91;2089258;28;20212;-71
2022/12/14 03:24:27;;;;;;;16.52;13.05;;;;;;;4.23;100.00;101324.41;2091923;28;20253;-71
2022/12/14 03:25:57;;;;;;;15.98;13.13;;;;;;;4.90;100.00;101428.41;2097055;28;20600;-71
2022/12/14 03:27:06;;;;;;;15.20;12.85;;;;;;;4.38;100.00;101368.16;2092307;28;20221;-70
2022/12/14 03:28:43;;;;;;;15.65;13.23;;;;;;;4.91;100.00;101445.66;2092197;28;20692;-70
2022/12/14 03:29:51;;;;;;;18.60;13.80;;;;;;;4.88;100.00;101455.44;2089255;28;20163;-71
2022/12/14 03:30:59;;;;;;;17.70;14.38;;;;;;;4.55;100.00;101400.50;2089822;28;20709;-71
2022/12/14 03:32:07;;;;;;;16.30;13.55;;;;;;;4.87;100.00;101453.84;2089338;28;20162;-70
2022/12/14 03:33:14;;;;;;;18.25;14.40;;;;;;;3.98;100.00;101335.06;2088907;28;20658;-70
2022/12/14 03:34:17;;;;;;;18.13;15.13;;;;;;;4.84;100.00;101443.63;2089666;28;20704;-70
2022/12/14 03:35:23;;;;;;;18.10;15.10;;;;;;;4.86;100.00;101435.81;2097228;28;20700;-71
2022/12/14 03:37:09;;;;;;;17.25;14.32;;;;;;;4.86;100.00;101430.31;2090049;28;20208;-71
2022/12/14 03:38:18;;;;;;;18.55;14.80;;;;;;;4.88;100.00;101429.94;2089959;28;20283;-70
2022/12/14 03:39:29;;;;;;;18.25;14.45;;;;;;;4.79;100.00;101441.22;2096799;28;20202;-70
2022/12/14 03:40:49;;;;;;;18.70;14.60;;;;;;;4.83;100.00;101422.81;2096055;28;20202;-71
2022/12/14 03:42:28;;;;;;;19.25;15.70;;;;;;;4.81;100.00;101433.38;2094114;28;20263;-71
2022/12/14 03:44:00;;;;;;;18.13;14.65;;;;;;;4.82;100.00;101437.72;2080147;28;20192;-70
2022/12/14 03:45:14;;;;;;;17.65;14.63;;;;;;;4.37;100.00;101372.03;2077006;28;20211;-70
2022/12/14 03:46:29;;;;;;;20.25;15.43;;;;;;;4.52;100.00;101394.97;2079933;28;20310;-71
2022/12/14 03:47:47;;;;;;;19.58;15.18;;;;;;;4.71;100.00;101427.75;2079320;28;20586;-71
2022/12/14 03:48:56;;;;;;;19.73;14.82;;;;;;;4.74;100.00;101433.31;2080907;28;20192;-71
2022/12/14 03:49:59;;;;;;;19.38;15.80;;;;;;;4.75;100.00;101439.56;2088838;28;20456;-71
2022/12/14 03:51:09;;;;;;;18.60;15.43;;;;;;;4.78;100.00;101427.84;2090706;28;20202;-71
2022/12/14 03:52:54;;;;;;;18.80;15.30;;;;;;;4.83;100.00;101433.03;2092062;28;20332;-71
2022/12/14 03:54:24;;;;;;;19.42;15.10;;;;;;;4.82;100.00;101442.44;2079627;28;20655;-71
2022/12/14 03:55:42;;;;;;;24.67;15.30;;;;;;;4.82;100.00;101447.91;2076095;28;20226;-70
2022/12/14 03:57:01;;;;;;;20.65;15.73;;;;;;;4.78;100.00;101450.59;2075128;28;20197;-70
2022/12/14 03:58:25;;;;;;;23.02;16.08;;;;;;;4.76;100.00;101444.69;2079677;28;20198;-70
2022/12/14 04:00:04;;;;;;;18.83;16.08;;;;;;;4.74;100.00;101449.78;2083580;28;20221;-71
2022/12/14 04:01:13;;;;;;;20.95;15.95;;;;;;;4.75;100.00;101445.06;2085333;28;20226;-71
2022/12/14 04:02:17;;;;;;;19.33;15.30;;;;;;;4.76;100.00;101455.69;2088345;28;20190;-70
2022/12/14 04:03:39;;;;;;;18.55;15.30;;;;;;;4.76;100.00;101446.63;2088892;28;20254;-70
2022/12/14 04:05:02;;;;;;;21.17;16.63;;;;;;;4.74;100.00;101446.25;2088827;28;20793;-70
2022/12/14 04:06:11;;;;;;;18.67;15.32;;;;;;;4.74;100.00;101444.28;2088798;28;20194;-71
2022/12/14 04:07:33;;;;;;;19.02;15.98;;;;;;;4.78;100.00;101444.34;2088543;28;20191;-71
2022/12/14 04:08:43;;;;;;;18.70;15.50;;;;;;;4.75;100.00;101440.38;2095948;28;20194;-70
2022/12/14 04:09:53;;;;;;;19.55;15.73;;;;;;;4.75;100.00;101426.66;2096541;28;20668;-71
2022/12/14 04:19:47;;;;;;;17.85;14.45;;;;;;;4.58;100.00;101446.44;2096902;28;20703;-71
2022/12/14 04:20:56;;;;;;;18.67;15.85;;;;;;;4.53;100.00;101444.03;2096996;28;20584;-71
2022/12/14 04:22:02;;;;;;;19.55;15.57;;;;;;;4.02;100.00;101362.53;2096897;28;20229;-71
2022/12/14 04:23:11;;;;;;;19.58;15.98;;;;;;;3.65;100.00;101307.53;2093986;28;20203;-70
2022/12/14 04:27:19;;;;;;;18.45;15.10;;;;;;;4.72;100.00;101459.56;2089693;28;20203;-71
2022/12/14 04:29:55;;;;;;;18.55;14.88;;;;;;;4.75;100.00;101456.06;2088459;28;20203;-70
2022/12/14 04:31:00;;;;;;;18.90;15.55;;;;;;;3.80;100.00;101323.03;2088666;28;20708;-71
2022/12/14 04:32:08;;;;;;;18.25;15.55;;;;;;;3.99;100.00;101338.59;2089130;28;20164;-71
2022/12/14 04:34:34;;;;;;;18.13;15.05;;;;;;;4.79;100.00;101454.16;2088739;28;20243;-70
2022/12/14 04:35:40;;;;;;;18.40;15.10;;;;;;;4.82;100.00;101453.41;2090433;28;20267;-70
2022/12/14 04:36:52;;;;;;;18.90;15.70;;;;;;;4.83;100.00;101447.53;2095436;28;20559;-70
2022/12/14 04:38:03;;;;;;;19.08;15.35;;;;;;;4.27;100.00;101369.94;2090557;28;20168;-70
2022/12/14 04:39:07;;;;;;;18.17;15.30;;;;;;;4.90;100.00;101442.13;2096839;28;20164;-70
2022/12/14 04:40:16;;;;;;;18.42;15.32;;;;;;;4.92;100.00;101445.28;2095096;28;20187;-70
2022/12/14 04:41:21;;;;;;;18.48;15.15;;;;;;;4.93;100.00;101443.34;2089330;28;20554;-71
2022/12/14 04:42:29;;;;;;;20.67;15.85;;;;;;;4.93;100.00;101433.13;2093248;28;20709;-71
2022/12/14 04:43:35;;;;;;;18.48;15.75;;;;;;;4.84;100.00;101434.59;2095593;28;20751;-70
2022/12/14 04:44:50;;;;;;;20.05;16.23;;;;;;;4.77;100.00;101438.03;2087140;28;20218;-70
2022/12/14 04:46:14;;;;;;;18.55;15.63;;;;;;;4.69;100.00;101435.59;2095934;28;20163;-71
2022/12/14 04:47:17;;;;;;;19.77;15.95;;;;;;;4.69;100.00;101435.59;2088638;28;20199;-71
2022/12/14 04:48:20;;;;;;;18.75;15.55;;;;;;;4.69;100.00;101439.13;2088194;28;20190;-70
2022/12/14 04:49:29;;;;;;;19.65;16.50;;;;;;;4.69;100.00;101435.59;2088519;28;20287;-71
2022/12/14 04:50:34;;;;;;;20.50;17.58;;;;;;;4.52;100.00;101422.44;2088196;28;20171;-71
2022/12/14 04:51:51;;;;;;;19.90;16.30;;;;;;;4.50;100.00;101417.31;2089941;28;20164;-70
2022/12/14 04:53:00;;;;;;;20.75;16.45;;;;;;;3.70;100.00;101290.00;2096122;28;20203;-71
2022/12/14 04:54:12;;;;;;;20.20;16.80;;;;;;;4.64;100.00;101433.97;2093953;28;20193;-70
2022/12/14 04:55:47;;;;;;;22.00;16.92;;;;;;;3.85;100.00;101313.72;2094610;28;20557;-71
2022/12/14 04:57:14;;;;;;;20.98;16.70;;;;;;;4.56;100.00;101437.78;2096642;28;20792;-71
2022/12/14 04:58:21;;;;;;;22.05;17.42;;;;;;;4.50;100.00;101441.19;2078789;28;20207;-66
2022/12/14 04:59:22;;;;;;;20.75;16.75;;;;;;;4.39;100.00;101443.81;2096269;28;20182;-66
2022/12/14 05:00:23;;;;;;;20.88;17.27;;;;;;;4.51;100.00;101454.56;2091885;28;20201;-66
2022/12/14 05:01:42;;;;;;;20.93;17.43;;;;;;;4.57;100.00;101457.78;2087505;28;20201;-66
2022/12/14 05:03:13;;;;;;;20.15;16.73;;;;;;;4.65;100.00;101460.25;2094755;28;20219;-67
2022/12/14 05:04:25;;;;;;;21.67;16.17;;;;;;;4.67;100.00;101466.16;2094410;28;20618;-63
2022/12/14 05:05:43;;;;;;;20.50;17.70;;;;;;;3.82;100.00;101328.97;2094739;28;20634;-61
2022/12/14 05:07:04;;;;;;;21.90;17.52;;;;;;;4.55;100.00;101436.19;2094620;28;20192;-67
2022/12/14 05:08:20;;;;;;;21.75;17.65;;;;;;;4.71;100.00;101458.75;2094561;28;20190;-64
2022/12/14 05:09:33;;;;;;;21.90;18.08;;;;;;;4.52;100.00;101434.19;2095559;28;20667;-63
2022/12/14 05:10:47;;;;;;;26.33;18.08;;;;;;;4.67;100.00;101451.66;2094456;28;20191;-70
2022/12/14 05:12:06;;;;;;;21.30;16.77;;;;;;;4.77;100.00;101465.50;2096297;28;20267;-74
2022/12/14 05:13:19;;;;;;;20.40;16.58;;;;;;;4.76;100.00;101463.91;2095681;28;20243;-75
2022/12/14 05:14:31;;;;;;;20.63;16.83;;;;;;;4.76;100.00;101471.34;2095621;28;20646;-75
2022/12/14 05:15:38;;;;;;;21.10;17.13;;;;;;;4.75;100.00;101467.03;2094914;28;20254;-75
2022/12/14 05:16:39;;;;;;;20.77;17.42;;;;;;;4.77;100.00;101471.00;2104246;28;20170;-66
2022/12/14 05:17:41;;;;;;;22.07;18.10;;;;;;;4.80;100.00;101464.75;2111291;28;20215;-71
2022/12/14 05:18:43;;;;;;;23.30;17.95;;;;;;;4.84;100.00;101454.63;2094358;28;20198;-73
2022/12/14 05:19:48;;;;;;;20.83;17.58;;;;;;;4.89;100.00;101450.75;2094588;28;20248;-70
2022/12/14 05:20:49;;;;;;;19.80;16.98;;;;;;;4.88;100.00;101455.44;2095022;28;20647;-63
2022/12/14 05:21:49;;;;;;;21.20;17.95;;;;;;;4.89;100.00;101461.72;2095471;28;20672;-68
2022/12/14 05:22:50;;;;;;;20.90;17.50;;;;;;;4.91;100.00;101462.94;2094429;28;20606;-68